createdAt,value
2023-05-21T00:03:16.600Z,16.30
2023-05-21T00:08:20.065Z,16.30
2023-05-21T00:13:23.388Z,16.20
2023-05-21T00:18:28.390Z,16.20
2023-05-21T00:23:32.801Z,16.30
2023-05-21T00:28:36.378Z,16.20
2023-05-21T00:33:41.384Z,16.00
2023-05-21T00:38:46.115Z,16.00
2023-05-21T00:43:49.715Z,16.00
2023-05-21T00:48:54.787Z,16.00
2023-05-21T00:53:59.141Z,16.10
2023-05-21T00:59:05.705Z,16.10
2023-05-21T01:04:10.831Z,16.00
2023-05-21T01:09:14.337Z,16.10
2023-05-21T01:14:19.438Z,16.00
2023-05-21T01:19:25.874Z,16.10
2023-05-21T01:24:30.676Z,16.20
2023-05-21T01:29:34.049Z,16.20
2023-05-21T01:34:44.662Z,16.20
2023-05-21T01:39:55.537Z,16.20
2023-05-21T01:45:00.835Z,16.10
2023-05-21T01:50:05.876Z,16.10
2023-05-21T01:55:11.291Z,15.40
2023-05-21T02:00:16.181Z,16.10
2023-05-21T02:05:19.799Z,19.10
2023-05-21T02:10:24.565Z,16.10
2023-05-21T02:15:28.144Z,16.00
2023-05-21T02:20:32.105Z,15.90
2023-05-21T02:25:37.114Z,15.80
2023-05-21T02:30:40.803Z,15.60
2023-05-21T02:35:45.123Z,15.70
2023-05-21T02:40:50.062Z,15.70
2023-05-21T02:45:53.636Z,15.70
2023-05-21T02:50:59.366Z,15.70
2023-05-21T02:56:04.242Z,15.80
2023-05-21T03:01:07.744Z,15.70
2023-05-21T03:06:11.608Z,15.70
2023-05-21T03:11:16.806Z,15.60
2023-05-21T03:16:20.198Z,15.50
2023-05-21T03:21:24.220Z,15.40
2023-05-21T03:26:29.561Z,15.30
2023-05-21T03:31:34.249Z,15.30
2023-05-21T03:36:46.359Z,15.30
2023-05-21T03:41:52.049Z,15.10
2023-05-21T03:47:03.103Z,15.20
2023-05-21T03:52:09.922Z,15.10
2023-05-21T03:57:14.872Z,14.70
2023-05-21T04:02:18.458Z,15.10
2023-05-21T04:07:22.420Z,15.10
2023-05-21T04:12:27.364Z,15.00
2023-05-21T04:17:30.771Z,15.00
2023-05-21T04:22:35.372Z,15.10
2023-05-21T04:27:40.214Z,15.10
2023-05-21T04:32:45.958Z,15.20
2023-05-21T04:37:49.476Z,15.30
2023-05-21T04:42:54.223Z,15.40
2023-05-21T04:48:01.168Z,15.60
2023-05-21T04:53:05.996Z,15.90
2023-05-21T04:58:11.636Z,16.00
2023-05-21T05:03:15.505Z,16.30
2023-05-21T05:08:20.444Z,16.40
2023-05-21T05:13:26.284Z,16.50
2023-05-21T05:18:30.489Z,16.60
2023-05-21T05:23:33.994Z,16.70
2023-05-21T05:28:38.910Z,16.70
2023-05-21T05:33:42.785Z,16.80
2023-05-21T05:38:46.404Z,16.90
2023-05-21T05:43:51.373Z,16.90
2023-05-21T05:48:57.348Z,17.10
2023-05-21T05:54:00.772Z,17.10
2023-05-21T05:59:05.631Z,17.10
2023-05-21T06:04:12.318Z,17.20
2023-05-21T06:09:16.038Z,17.30
2023-05-21T06:14:20.997Z,17.40
2023-05-21T06:19:25.615Z,17.50
2023-05-21T06:24:29.026Z,20.20
2023-05-21T06:29:34.400Z,18.00
2023-05-21T06:34:38.738Z,18.30
2023-05-21T06:39:42.173Z,18.30
2023-05-21T06:44:47.148Z,18.70
2023-05-21T06:49:55.003Z,15.90
2023-05-21T06:54:58.565Z,19.40
2023-05-21T07:00:09.330Z,19.90
2023-05-21T07:05:14.139Z,20.60
2023-05-21T07:10:18.333Z,21.00
2023-05-21T07:15:23.398Z,21.40
2023-05-21T07:20:27.106Z,21.60
2023-05-21T07:25:33.200Z,21.90
2023-05-21T07:30:38.678Z,22.20
2023-05-21T07:35:46.947Z,22.90
2023-05-21T07:40:50.519Z,22.70
2023-05-21T07:45:55.789Z,23.00
2023-05-21T07:51:00.600Z,22.70
2023-05-21T07:56:05.510Z,22.30
2023-05-21T08:01:11.986Z,21.90
2023-05-21T08:06:15.880Z,21.70
2023-05-21T08:11:20.059Z,21.70
2023-05-21T08:16:25.256Z,21.60
2023-05-21T08:21:29.210Z,21.60
2023-05-21T08:26:32.966Z,21.80
2023-05-21T08:31:38.974Z,21.70
2023-05-21T08:36:43.478Z,22.10
2023-05-21T08:42:25.592Z,22.40
2023-05-21T08:47:43.680Z,23.10
2023-05-21T08:52:48.261Z,23.00
2023-05-21T08:57:55.056Z,21.90
2023-05-21T09:03:07.748Z,22.60
2023-05-21T09:08:19.537Z,23.00
2023-05-21T09:13:36.843Z,23.20
2023-05-21T09:18:47.501Z,23.20
2023-05-21T09:23:58.304Z,23.00
2023-05-21T09:29:02.626Z,23.10
2023-05-21T09:34:08.553Z,23.20
2023-05-21T09:39:16.720Z,23.30
2023-05-21T09:44:21.702Z,23.50
2023-05-21T09:49:28.317Z,23.40
2023-05-21T09:54:34.799Z,23.50
2023-05-21T09:59:39.565Z,24.70
2023-05-21T10:04:45.885Z,26.30
2023-05-21T10:09:50.611Z,26.50
2023-05-21T10:15:02.622Z,27.50
2023-05-21T10:20:20.539Z,31.30
2023-05-21T10:25:25.075Z,26.80
2023-05-21T10:30:29.668Z,26.70
2023-05-21T10:35:35.611Z,26.70
2023-05-21T10:40:39.362Z,26.50
2023-05-21T10:46:00.272Z,27.00
2023-05-21T10:51:21.445Z,26.30
2023-05-21T10:56:30.017Z,26.50
2023-05-21T11:01:36.105Z,26.70
2023-05-21T11:06:41.033Z,26.50
2023-05-21T11:11:48.786Z,29.30
2023-05-21T11:16:52.493Z,26.30
2023-05-21T11:21:57.630Z,26.20
2023-05-21T11:27:04.594Z,25.80
2023-05-21T11:32:10.514Z,25.90
2023-05-21T11:37:43.770Z,25.90
2023-05-21T11:42:52.080Z,25.80
2023-05-21T11:47:57.273Z,25.80
2023-05-21T11:53:02.385Z,26.20
2023-05-21T11:58:08.598Z,26.60
2023-05-21T12:03:16.652Z,27.00
2023-05-21T12:08:26.002Z,27.80
2023-05-21T12:13:29.973Z,28.10
2023-05-21T12:18:33.333Z,29.70
2023-05-21T12:23:38.082Z,27.90
2023-05-21T12:28:41.621Z,27.20
2023-05-21T12:33:47.389Z,26.70
2023-05-21T12:38:52.927Z,26.50
2023-05-21T12:43:56.250Z,27.00
2023-05-21T12:48:59.577Z,27.90
2023-05-21T12:54:04.419Z,27.90
2023-05-21T12:59:14.630Z,28.60
2023-05-21T13:04:20.884Z,28.40
2023-05-21T13:09:25.736Z,27.50
2023-05-21T13:14:29.014Z,27.20
2023-05-21T13:19:32.390Z,27.00
2023-05-21T13:24:37.413Z,26.80
2023-05-21T13:29:40.735Z,26.80
2023-05-21T13:34:44.122Z,27.30
2023-05-21T13:39:49.477Z,27.30
2023-05-21T13:44:52.998Z,27.40
2023-05-21T13:49:56.348Z,27.60
2023-05-21T13:55:01.174Z,27.40
2023-05-21T14:00:06.044Z,27.40
2023-05-21T14:05:12.050Z,27.50
2023-05-21T14:10:17.095Z,28.90
2023-05-21T14:15:21.296Z,30.20
2023-05-21T14:20:24.683Z,29.90
2023-05-21T14:25:29.543Z,30.50
2023-05-21T14:30:33.136Z,30.90
2023-05-21T14:35:36.629Z,30.70
2023-05-21T14:40:41.607Z,32.90
2023-05-21T14:45:45.603Z,30.20
2023-05-21T14:50:49.314Z,30.90
2023-05-21T14:55:55.260Z,31.40
2023-05-21T15:00:58.688Z,31.00
2023-05-21T15:06:01.977Z,31.10
2023-05-21T15:11:07.710Z,31.50
2023-05-21T15:16:11.037Z,31.40
2023-05-21T15:21:14.350Z,30.10
2023-05-21T15:26:19.009Z,30.60
2023-05-21T15:31:22.393Z,32.30
2023-05-21T15:36:27.115Z,33.30
2023-05-21T15:41:31.929Z,32.60
2023-05-21T15:46:35.469Z,31.60
2023-05-21T15:51:40.384Z,30.10
2023-05-21T15:56:46.409Z,28.50
2023-05-21T16:01:50.389Z,27.40
2023-05-21T16:06:53.754Z,27.20
2023-05-21T16:11:58.551Z,27.00
2023-05-21T16:17:01.884Z,26.70
2023-05-21T16:22:05.542Z,26.50
2023-05-21T16:27:10.341Z,26.20
2023-05-21T16:32:14.316Z,25.90
2023-05-21T16:37:17.777Z,25.90
2023-05-21T16:42:22.473Z,25.80
2023-05-21T16:47:26.020Z,25.80
2023-05-21T16:52:29.591Z,25.70
2023-05-21T16:57:36.051Z,25.70
2023-05-21T17:02:40.514Z,25.50
2023-05-21T17:07:44.591Z,25.40
2023-05-21T17:12:49.343Z,25.40
2023-05-21T17:17:52.827Z,25.20
2023-05-21T17:22:56.415Z,25.10
2023-05-21T17:28:01.443Z,25.00
2023-05-21T17:33:05.003Z,24.80
2023-05-21T17:38:08.399Z,24.70
2023-05-21T17:43:13.321Z,24.50
2023-05-21T17:48:16.763Z,24.30
2023-05-21T17:53:20.184Z,24.10
2023-05-21T17:58:25.160Z,24.00
2023-05-21T18:03:28.652Z,23.90
2023-05-21T18:08:32.066Z,23.80
2023-05-21T18:13:36.942Z,23.60
2023-05-21T18:18:40.344Z,23.40
2023-05-21T18:23:43.904Z,23.00
2023-05-21T18:28:49.849Z,22.80
2023-05-21T18:33:53.456Z,22.70
2023-05-21T18:38:57.689Z,22.50
2023-05-21T18:44:02.869Z,22.30
2023-05-21T18:49:06.796Z,22.00
2023-05-21T18:54:10.158Z,21.90
2023-05-21T18:59:14.858Z,21.60
2023-05-21T19:04:19.904Z,21.40
2023-05-21T19:09:23.253Z,21.20
2023-05-21T19:14:27.958Z,21.00
2023-05-21T19:19:31.991Z,20.80
2023-05-21T19:24:35.528Z,20.60
2023-05-21T19:29:40.277Z,20.60
2023-05-21T19:34:44.754Z,20.50
2023-05-21T19:39:50.264Z,20.40
2023-05-21T19:44:55.176Z,20.30
2023-05-21T19:49:58.882Z,20.10
2023-05-21T19:55:05.150Z,20.00
2023-05-21T20:00:11.291Z,20.00
2023-05-21T20:05:20.094Z,19.90
2023-05-21T20:10:23.433Z,19.80
2023-05-21T20:15:28.221Z,19.60
2023-05-21T20:20:34.823Z,19.30
2023-05-21T20:25:38.818Z,19.10
2023-05-21T20:30:55.213Z,19.00
2023-05-21T20:35:58.744Z,19.00
2023-05-21T20:41:02.701Z,18.80
2023-05-21T20:46:07.912Z,18.80
2023-05-21T20:51:11.596Z,18.90
2023-05-21T20:56:16.935Z,18.90
2023-05-21T21:01:23.196Z,18.90
2023-05-21T21:06:30.138Z,18.70
2023-05-21T21:11:33.509Z,18.60
2023-05-21T21:16:38.365Z,18.50
2023-05-21T21:21:41.838Z,18.20
2023-05-21T21:26:45.149Z,18.20
2023-05-21T21:31:51.210Z,18.10
2023-05-21T21:36:56.217Z,18.10
2023-05-21T21:42:00.058Z,18.10
2023-05-21T21:47:05.103Z,18.10
2023-05-21T21:52:08.764Z,18.00
2023-05-21T21:57:12.310Z,17.80
2023-05-21T22:02:18.118Z,17.60
2023-05-21T22:07:21.592Z,17.80
2023-05-21T22:12:25.132Z,17.80
2023-05-21T22:17:29.998Z,17.60
2023-05-21T22:22:33.505Z,17.30
2023-05-21T22:27:36.992Z,17.30
2023-05-21T22:32:42.093Z,17.20
2023-05-21T22:37:45.615Z,17.00
2023-05-21T22:42:49.311Z,16.90
2023-05-21T22:47:56.699Z,16.70
2023-05-21T22:53:00.406Z,16.60
2023-05-21T22:58:03.904Z,16.50
2023-05-21T23:03:08.818Z,16.30
2023-05-21T23:08:12.487Z,16.30
2023-05-21T23:13:15.974Z,16.30
2023-05-21T23:18:21.094Z,16.40
2023-05-21T23:23:24.464Z,16.30
2023-05-21T23:28:28.169Z,16.20
2023-05-21T23:33:33.057Z,16.10
2023-05-21T23:38:36.495Z,15.70
2023-05-21T23:43:39.838Z,15.70
2023-05-21T23:48:44.710Z,15.60
2023-05-21T23:53:48.043Z,15.60
2023-05-21T23:58:51.811Z,15.60
